createdAt,value
2022-10-15T00:00:29.598Z,69.46
2022-10-15T00:02:57.474Z,69.60
2022-10-15T00:05:25.597Z,69.72
2022-10-15T00:07:53.779Z,69.90
2022-10-15T00:10:22.030Z,70.01
2022-10-15T00:12:50.476Z,69.72
2022-10-15T00:15:18.411Z,70.12
2022-10-15T00:17:47.471Z,70.37
2022-10-15T00:20:16.031Z,70.31
2022-10-15T00:22:43.721Z,70.52
2022-10-15T00:25:13.679Z,70.44
2022-10-15T00:27:41.419Z,70.58
2022-10-15T00:30:10.620Z,70.51
2022-10-15T00:32:38.670Z,70.55
2022-10-15T00:35:09.079Z,70.86
2022-10-15T00:37:37.026Z,70.70
2022-10-15T00:40:05.332Z,70.64
2022-10-15T00:42:33.531Z,70.75
2022-10-15T00:45:01.398Z,70.73
2022-10-15T00:47:36.127Z,70.77
2022-10-15T00:50:09.388Z,70.74
2022-10-15T00:52:45.954Z,70.87
2022-10-15T00:55:17.283Z,70.82
2022-10-15T00:57:47.573Z,70.99
2022-10-15T01:00:16.614Z,70.96
2022-10-15T01:02:45.982Z,71.03
2022-10-15T01:05:17.222Z,71.08
2022-10-15T01:07:45.570Z,70.98
2022-10-15T01:10:14.471Z,70.91
2022-10-15T01:12:58.398Z,71.06
2022-10-15T01:15:30.310Z,71.17
2022-10-15T01:18:01.494Z,70.95
2022-10-15T01:20:50.254Z,71.10
2022-10-15T01:23:48.138Z,71.26
2022-10-15T01:26:35.914Z,70.86
2022-10-15T01:29:15.613Z,70.82
2022-10-15T01:31:52.841Z,70.75
2022-10-15T01:34:24.350Z,70.89
2022-10-15T01:36:57.650Z,70.66
2022-10-15T01:39:31.426Z,71.03
2022-10-15T01:42:03.267Z,70.85
2022-10-15T01:44:35.562Z,70.98
2022-10-15T01:47:07.689Z,71.26
2022-10-15T01:49:42.669Z,71.16
2022-10-15T01:52:16.023Z,71.06
2022-10-15T01:54:45.265Z,70.51
2022-10-15T01:57:14.943Z,70.66
2022-10-15T01:59:45.735Z,70.59
2022-10-15T02:02:15.331Z,70.27
2022-10-15T02:04:43.019Z,70.33
2022-10-15T02:07:17.033Z,70.55
2022-10-15T02:09:55.807Z,70.47
2022-10-15T02:12:38.916Z,70.32
2022-10-15T02:15:13.069Z,70.13
2022-10-15T02:17:52.778Z,70.17
2022-10-15T02:20:23.948Z,70.05
2022-10-15T02:22:57.165Z,70.22
2022-10-15T02:25:26.840Z,70.16
2022-10-15T02:27:58.452Z,70.23
2022-10-15T02:30:28.801Z,70.23
2022-10-15T02:33:01.004Z,70.16
2022-10-15T02:35:29.411Z,70.30
2022-10-15T02:38:03.567Z,70.20
2022-10-15T02:40:35.885Z,70.40
2022-10-15T02:43:06.610Z,70.07
2022-10-15T02:45:34.274Z,70.01
2022-10-15T02:48:03.514Z,70.18
2022-10-15T02:50:31.529Z,69.99
2022-10-15T02:52:59.207Z,69.97
2022-10-15T02:55:27.303Z,70.02
2022-10-15T02:57:55.012Z,70.01
2022-10-15T03:00:23.290Z,70.46
2022-10-15T03:02:51.130Z,70.06
2022-10-15T03:05:20.947Z,70.25
2022-10-15T03:07:48.625Z,70.41
2022-10-15T03:10:17.075Z,70.09
2022-10-15T03:12:44.726Z,70.36
2022-10-15T03:15:12.607Z,70.29
2022-10-15T03:17:40.646Z,70.28
2022-10-15T03:20:08.871Z,70.25
2022-10-15T03:22:37.934Z,70.19
2022-10-15T03:25:06.883Z,70.06
2022-10-15T03:27:34.559Z,70.16
2022-10-15T03:30:02.843Z,69.84
2022-10-15T03:32:33.019Z,69.84
2022-10-15T03:35:03.742Z,69.59
2022-10-15T03:37:31.426Z,69.68
2022-10-15T03:40:01.731Z,69.47
2022-10-15T03:42:29.964Z,69.60
2022-10-15T03:44:57.634Z,69.52
2022-10-15T03:47:25.763Z,69.31
2022-10-15T03:49:53.470Z,69.30
2022-10-15T03:52:21.341Z,69.16
2022-10-15T03:54:49.613Z,69.46
2022-10-15T03:57:18.640Z,69.58
2022-10-15T03:59:46.751Z,69.63
2022-10-15T04:02:14.423Z,69.75
2022-10-15T04:04:42.101Z,69.88
2022-10-15T04:07:10.235Z,69.79
2022-10-15T04:09:37.905Z,69.98
2022-10-15T04:12:06.547Z,70.12
2022-10-15T04:14:35.569Z,69.86
2022-10-15T04:17:03.255Z,70.00
2022-10-15T04:19:31.307Z,69.70
2022-10-15T04:21:59.106Z,69.71
2022-10-15T04:24:27.460Z,69.70
2022-10-15T04:26:55.182Z,69.57
2022-10-15T04:29:22.872Z,69.34
2022-10-15T04:31:52.364Z,69.49
2022-10-15T04:34:20.161Z,69.31
2022-10-15T04:36:47.843Z,69.51
2022-10-15T04:39:16.125Z,69.44
2022-10-15T04:41:43.841Z,69.27
2022-10-15T04:44:11.635Z,69.31
2022-10-15T04:46:39.377Z,69.19
2022-10-15T04:49:08.616Z,69.37
2022-10-15T04:51:37.613Z,69.30
2022-10-15T04:54:05.906Z,69.50
2022-10-15T04:56:34.043Z,69.42
2022-10-15T04:59:01.749Z,69.34
2022-10-15T05:01:29.490Z,69.33
2022-10-15T05:03:57.574Z,69.48
2022-10-15T05:06:26.647Z,69.45
2022-10-15T05:08:54.867Z,69.61
2022-10-15T05:11:24.693Z,69.60
2022-10-15T05:13:53.060Z,69.45
2022-10-15T05:16:23.190Z,69.40
2022-10-15T05:18:52.194Z,69.33
2022-10-15T05:21:21.251Z,69.45
2022-10-15T05:23:50.780Z,69.50
2022-10-15T05:26:21.616Z,69.48
2022-10-15T05:28:49.611Z,69.58
2022-10-15T05:31:21.194Z,69.50
2022-10-15T05:33:49.461Z,69.44
2022-10-15T05:36:19.376Z,69.60
2022-10-15T05:38:48.891Z,69.44
2022-10-15T05:41:18.198Z,69.50
2022-10-15T05:43:47.914Z,69.55
2022-10-15T05:46:16.540Z,69.58
2022-10-15T05:48:46.022Z,69.16
2022-10-15T05:51:14.704Z,69.63
2022-10-15T05:53:43.229Z,69.92
2022-10-15T05:56:11.110Z,69.73
2022-10-15T05:58:41.281Z,69.83
2022-10-15T06:01:10.854Z,69.72
2022-10-15T06:03:39.684Z,69.70
2022-10-15T06:06:15.120Z,69.89
2022-10-15T06:08:43.120Z,69.71
2022-10-15T06:11:10.874Z,69.60
2022-10-15T06:13:41.513Z,69.58
2022-10-15T06:16:10.465Z,69.72
2022-10-15T06:18:39.411Z,69.75
2022-10-15T06:21:07.884Z,69.94
2022-10-15T06:23:37.452Z,70.00
2022-10-15T06:26:06.081Z,70.14
2022-10-15T06:28:34.446Z,70.15
2022-10-15T06:31:03.886Z,70.00
2022-10-15T06:33:32.142Z,70.12
2022-10-15T06:36:03.793Z,69.98
2022-10-15T06:38:32.015Z,70.04
2022-10-15T06:41:00.057Z,70.13
2022-10-15T06:43:31.014Z,69.80
2022-10-15T06:46:00.935Z,69.94
2022-10-15T06:48:30.471Z,70.12
2022-10-15T06:51:00.735Z,70.12
2022-10-15T06:53:28.986Z,70.08
2022-10-15T06:55:58.389Z,70.00
2022-10-15T06:58:26.054Z,70.09
2022-10-15T07:01:07.564Z,70.09
2022-10-15T07:03:38.877Z,70.01
2022-10-15T07:06:10.938Z,70.14
2022-10-15T07:08:41.630Z,70.31
2022-10-15T07:11:11.394Z,70.11
2022-10-15T07:13:39.443Z,70.11
2022-10-15T07:16:08.536Z,70.35
2022-10-15T07:18:38.399Z,70.28
2022-10-15T07:21:08.659Z,70.24
2022-10-15T07:23:36.650Z,70.32
2022-10-15T07:26:04.408Z,70.55
2022-10-15T07:28:32.074Z,70.52
2022-10-15T07:31:03.121Z,70.57
2022-10-15T07:33:31.167Z,70.62
2022-10-15T07:36:00.537Z,70.75
2022-10-15T07:38:28.234Z,70.82
2022-10-15T07:40:59.273Z,71.02
2022-10-15T07:43:27.999Z,70.96
2022-10-15T07:45:56.249Z,70.98
2022-10-15T07:48:25.599Z,70.90
2022-10-15T07:50:56.639Z,71.06
2022-10-15T07:53:26.286Z,71.19
2022-10-15T07:55:54.207Z,71.37
2022-10-15T07:58:21.875Z,71.45
2022-10-15T08:00:50.145Z,71.74
2022-10-15T08:03:17.773Z,71.74
2022-10-15T08:05:45.903Z,71.64
2022-10-15T08:08:13.546Z,71.69
2022-10-15T08:10:42.639Z,71.99
2022-10-15T08:13:10.791Z,72.01
2022-10-15T08:15:40.166Z,72.22
2022-10-15T08:18:08.353Z,72.13
2022-10-15T08:20:36.585Z,72.49
2022-10-15T08:23:05.092Z,72.47
2022-10-15T08:25:33.730Z,72.66
2022-10-15T08:28:02.801Z,72.56
2022-10-15T08:30:31.227Z,72.49
2022-10-15T08:32:58.995Z,72.57
2022-10-15T08:35:28.284Z,72.45
2022-10-15T08:37:56.699Z,72.75
2022-10-15T08:40:24.376Z,72.81
2022-10-15T08:42:52.721Z,72.92
2022-10-15T08:45:28.338Z,72.70
2022-10-15T08:48:02.249Z,72.99
2022-10-15T08:50:42.591Z,73.32
2022-10-15T08:53:15.040Z,73.26
2022-10-15T08:55:45.838Z,73.69
2022-10-15T08:58:18.674Z,73.65
2022-10-15T09:00:53.118Z,73.52
2022-10-15T09:03:35.515Z,73.67
2022-10-15T09:06:10.453Z,73.59
2022-10-15T09:08:46.747Z,73.80
2022-10-15T09:11:20.231Z,73.99
2022-10-15T09:13:49.016Z,73.93
2022-10-15T09:16:21.231Z,74.21
2022-10-15T09:18:53.483Z,73.94
2022-10-15T09:21:23.813Z,74.12
2022-10-15T09:23:52.935Z,73.89
2022-10-15T09:27:27.449Z,74.13
2022-10-15T09:30:04.837Z,74.30
2022-10-15T09:32:39.663Z,74.33
2022-10-15T09:35:19.241Z,74.51
2022-10-15T09:37:53.938Z,74.69
2022-10-15T09:40:38.871Z,74.73
2022-10-15T09:43:08.273Z,74.69
2022-10-15T09:45:36.745Z,74.85
2022-10-15T09:48:17.556Z,74.69
2022-10-15T09:50:51.614Z,75.08
2022-10-15T09:53:28.230Z,75.08
2022-10-15T09:56:08.483Z,75.13
2022-10-15T09:58:41.349Z,75.13
2022-10-15T10:01:17.799Z,75.34
2022-10-15T10:03:53.573Z,75.40
2022-10-15T10:06:22.545Z,75.63
2022-10-15T10:08:53.043Z,75.20
2022-10-15T10:11:21.768Z,75.35
2022-10-15T10:13:54.759Z,75.39
2022-10-15T10:16:23.701Z,75.21
2022-10-15T10:19:13.555Z,75.85
2022-10-15T10:21:43.281Z,75.34
2022-10-15T10:24:28.301Z,75.31
2022-10-15T10:26:56.644Z,75.15
2022-10-15T10:29:34.468Z,74.91
2022-10-15T10:32:12.261Z,74.46
2022-10-15T10:34:48.724Z,74.91
2022-10-15T11:23:35.928Z,73.75
2022-10-15T11:26:14.783Z,73.47
2022-10-15T11:29:09.463Z,74.05
2022-10-15T13:27:47.635Z,60.90
2022-10-15T13:30:16.803Z,60.86
2022-10-15T13:32:48.322Z,61.28
2022-10-15T13:35:22.127Z,62.06
2022-10-15T13:37:51.013Z,61.06
2022-10-15T13:40:22.338Z,59.92
2022-10-15T13:43:01.748Z,61.08
2022-10-15T13:45:30.172Z,60.96
2022-10-15T13:47:58.143Z,60.42
2022-10-15T13:50:28.210Z,60.42
2022-10-15T13:53:00.355Z,60.42
2022-10-15T13:55:30.722Z,60.12
2022-10-15T13:58:04.419Z,60.34
2022-10-15T14:00:34.526Z,60.60
2022-10-15T14:03:09.789Z,60.48
2022-10-15T14:05:37.849Z,60.77
2022-10-15T14:08:06.043Z,59.95
2022-10-15T14:10:33.850Z,60.27
2022-10-15T14:13:03.378Z,59.98
2022-10-15T14:18:36.075Z,59.26
2022-10-15T14:21:04.938Z,59.10
2022-10-15T14:23:33.014Z,59.18
2022-10-15T14:26:03.557Z,59.19
2022-10-15T14:28:35.303Z,58.82
2022-10-15T14:31:03.941Z,58.56
2022-10-15T14:33:44.766Z,58.79
2022-10-15T14:36:23.539Z,57.50
2022-10-15T14:38:53.669Z,57.49
2022-10-15T14:41:30.580Z,55.89
2022-10-15T14:44:05.201Z,56.71
2022-10-15T14:46:39.659Z,56.46
2022-10-15T14:49:22.713Z,55.66
2022-10-15T14:51:56.448Z,56.49
2022-10-15T14:54:30.202Z,60.77
2022-10-15T14:56:59.235Z,57.66
2022-10-15T14:59:33.370Z,56.52
2022-10-15T15:02:03.883Z,56.95
2022-10-15T15:04:43.090Z,57.07
2022-10-15T15:07:17.679Z,57.19
2022-10-15T15:09:49.291Z,57.66
2022-10-15T15:12:24.232Z,56.78
2022-10-15T15:14:56.499Z,56.62
2022-10-15T15:17:26.569Z,56.87
2022-10-15T15:19:56.318Z,56.71
2022-10-15T15:22:29.512Z,57.26
2022-10-15T15:24:59.047Z,57.49
2022-10-15T15:27:28.916Z,57.76
2022-10-15T15:29:59.632Z,57.89
2022-10-15T15:32:27.810Z,57.06
2022-10-15T15:34:58.120Z,56.58
2022-10-15T15:37:29.287Z,56.53
2022-10-15T15:39:57.125Z,55.97
2022-10-15T15:42:26.917Z,55.34
2022-10-15T15:44:54.926Z,54.95
2022-10-15T15:47:24.186Z,55.11
2022-10-15T15:49:52.394Z,54.83
2022-10-15T15:52:20.286Z,55.52
2022-10-15T15:54:48.923Z,55.31
2022-10-15T15:57:16.705Z,55.20
2022-10-15T15:59:44.537Z,54.24
2022-10-15T16:02:13.255Z,54.29
2022-10-15T16:04:42.509Z,54.43
2022-10-15T16:07:13.292Z,54.26
2022-10-15T16:09:41.774Z,54.27
2022-10-15T16:12:09.754Z,54.11
2022-10-15T16:14:38.007Z,54.56
2022-10-15T16:17:05.949Z,54.65
2022-10-15T16:19:34.271Z,54.70
2022-10-15T16:22:03.825Z,54.62
2022-10-15T16:24:31.863Z,54.94
2022-10-15T16:26:59.765Z,55.05
2022-10-15T16:29:27.731Z,54.82
2022-10-15T16:31:55.692Z,54.68
2022-10-15T16:34:24.803Z,55.03
2022-10-15T16:36:52.645Z,55.43
2022-10-15T16:39:22.567Z,55.00
2022-10-15T16:41:50.489Z,55.29
2022-10-15T16:44:18.314Z,55.31
2022-10-15T16:46:46.180Z,55.46
2022-10-15T16:49:14.216Z,55.07
2022-10-15T16:51:43.732Z,55.50
2022-10-15T16:54:14.006Z,55.63
